createdAt,value
2023-03-30T00:03:55.643Z,96154.00
2023-03-30T00:08:07.883Z,96140.00
2023-03-30T00:12:11.127Z,96145.00
2023-03-30T00:16:16.201Z,96141.00
2023-03-30T00:20:20.700Z,96130.00
2023-03-30T00:24:29.490Z,96121.00
2023-03-30T00:28:45.262Z,96114.00
2023-03-30T00:32:48.482Z,96106.00
2023-03-30T00:36:54.605Z,96108.00
2023-03-30T00:41:04.699Z,96099.00
2023-03-30T00:45:20.058Z,96090.00
2023-03-30T00:49:23.109Z,96089.00
2023-03-30T00:53:37.128Z,96094.00
2023-03-30T00:57:44.363Z,96088.00
2023-03-30T01:01:50.177Z,96086.00
2023-03-30T01:05:57.810Z,96077.00
2023-03-30T01:10:06.033Z,96066.00
2023-03-30T01:14:19.412Z,96064.00
2023-03-30T01:18:37.623Z,96050.00
2023-03-30T01:23:14.067Z,96049.00
2023-03-30T01:27:50.576Z,96049.00
2023-03-30T01:32:12.054Z,96054.00
2023-03-30T01:36:41.888Z,96046.00
2023-03-30T01:40:59.045Z,96041.00
2023-03-30T01:45:11.467Z,96039.00
2023-03-30T01:49:22.712Z,96045.00
2023-03-30T01:53:32.042Z,96042.00
2023-03-30T01:57:43.003Z,96040.00
2023-03-30T02:01:54.564Z,96044.00
2023-03-30T02:06:04.068Z,96037.00
2023-03-30T02:10:10.868Z,96032.00
2023-03-30T02:14:19.323Z,96032.00
2023-03-30T02:18:22.579Z,96028.00
2023-03-30T02:22:30.549Z,96030.00
2023-03-30T02:26:38.711Z,96022.00
2023-03-30T02:30:51.587Z,96015.00
2023-03-30T02:35:18.960Z,96019.00
2023-03-30T02:39:33.917Z,95999.00
2023-03-30T02:43:47.157Z,95983.00
2023-03-30T02:48:06.131Z,95977.00
2023-03-30T02:52:16.378Z,95929.00
2023-03-30T02:56:27.094Z,95916.00
2023-03-30T03:04:46.623Z,95935.00
2023-03-30T03:08:50.797Z,95956.00
2023-03-30T03:12:53.827Z,95955.00
2023-03-30T03:17:09.857Z,95957.00
2023-03-30T03:21:15.466Z,95955.00
2023-03-30T03:25:18.624Z,95947.00
2023-03-30T03:29:25.568Z,95950.00
2023-03-30T03:33:31.945Z,95944.00
2023-03-30T03:37:37.704Z,95931.00
2023-03-30T03:41:49.465Z,95931.00
2023-03-30T03:45:54.515Z,95926.00
2023-03-30T03:49:57.519Z,95947.00
2023-03-30T03:54:02.208Z,95948.00
2023-03-30T03:58:05.905Z,95955.00
2023-03-30T04:02:08.996Z,95962.00
2023-03-30T04:06:12.518Z,95978.00
2023-03-30T04:10:18.177Z,95995.00
2023-03-30T04:14:21.202Z,95993.00
2023-03-30T04:18:24.343Z,95986.00
2023-03-30T04:22:27.504Z,95978.00
2023-03-30T04:26:33.800Z,95981.00
2023-03-30T04:30:36.862Z,95989.00
2023-03-30T04:34:54.841Z,95976.00
2023-03-30T04:39:06.269Z,95964.00
2023-03-30T04:43:16.760Z,95959.00
2023-03-30T04:47:19.777Z,95961.00
2023-03-30T04:51:25.625Z,95965.00
2023-03-30T04:55:31.286Z,95966.00
2023-03-30T04:59:35.982Z,95963.00
2023-03-30T05:03:39.886Z,95967.00
2023-03-30T05:07:44.058Z,95972.00
2023-03-30T05:11:47.079Z,95970.00
2023-03-30T05:15:58.443Z,95961.00
2023-03-30T05:20:02.273Z,95955.00
2023-03-30T05:24:06.947Z,95973.00
2023-03-30T05:28:14.233Z,95980.00
2023-03-30T05:32:18.590Z,95970.00
2023-03-30T05:36:28.490Z,95976.00
2023-03-30T05:40:31.777Z,95966.00
2023-03-30T05:44:35.611Z,95959.00
2023-03-30T05:48:40.175Z,95960.00
2023-03-30T05:52:43.548Z,95958.00
2023-03-30T05:56:46.664Z,95961.00
2023-03-30T06:00:54.284Z,95966.00
2023-03-30T06:05:01.763Z,95970.00
2023-03-30T06:09:06.646Z,95973.00
2023-03-30T06:13:16.941Z,95945.00
2023-03-30T06:17:33.787Z,95970.00
2023-03-30T06:21:42.271Z,95975.00
2023-03-30T06:25:52.871Z,95966.00
2023-03-30T06:29:58.754Z,95944.00
2023-03-30T06:34:02.326Z,95940.00
2023-03-30T06:38:07.647Z,95943.00
2023-03-30T06:42:15.067Z,95954.00
2023-03-30T06:46:18.499Z,95964.00
2023-03-30T06:50:21.788Z,95957.00
2023-03-30T06:54:28.398Z,95939.00
2023-03-30T06:58:32.194Z,95936.00
2023-03-30T07:02:35.205Z,95917.00
2023-03-30T07:06:40.611Z,95924.00
2023-03-30T07:10:45.053Z,95926.00
2023-03-30T07:14:55.533Z,95919.00
2023-03-30T07:19:03.961Z,95916.00
2023-03-30T07:23:07.385Z,95917.00
2023-03-30T07:27:14.103Z,95914.00
2023-03-30T07:31:18.431Z,95918.00
2023-03-30T07:35:23.686Z,95916.00
2023-03-30T07:39:26.894Z,95912.00
2023-03-30T07:43:32.624Z,95900.00
2023-03-30T07:47:38.028Z,95911.00
2023-03-30T07:51:43.868Z,95924.00
2023-03-30T07:55:46.915Z,95928.00
2023-03-30T07:59:51.660Z,95919.00
2023-03-30T08:03:55.791Z,95916.00
2023-03-30T08:08:01.883Z,95922.00
2023-03-30T08:12:14.121Z,95906.00
2023-03-30T08:16:20.182Z,95904.00
2023-03-30T08:20:23.323Z,95902.00
2023-03-30T08:24:29.253Z,95904.00
2023-03-30T08:28:32.248Z,95944.00
2023-03-30T08:32:36.701Z,95939.00
2023-03-30T08:36:41.880Z,95957.00
2023-03-30T08:40:45.536Z,95938.00
2023-03-30T08:44:56.242Z,95916.00
2023-03-30T08:49:06.516Z,95912.00
2023-03-30T08:53:14.775Z,95916.00
2023-03-30T08:57:30.008Z,95916.00
2023-03-30T09:01:43.759Z,95895.00
2023-03-30T09:05:53.980Z,95898.00
2023-03-30T09:10:01.673Z,95887.00
2023-03-30T09:14:07.355Z,95887.00
2023-03-30T09:18:16.752Z,95884.00
2023-03-30T09:22:22.103Z,95897.00
2023-03-30T09:26:35.054Z,95902.00
2023-03-30T09:30:42.146Z,95910.00
2023-03-30T09:34:48.221Z,95917.00
2023-03-30T09:38:54.135Z,95946.00
2023-03-30T09:43:09.112Z,95955.00
2023-03-30T09:47:24.028Z,95983.00
2023-03-30T09:51:31.274Z,95982.00
2023-03-30T09:55:39.243Z,95948.00
2023-03-30T09:59:45.676Z,95944.00
2023-03-30T10:04:11.815Z,95956.00
2023-03-30T10:08:25.044Z,95940.00
2023-03-30T10:12:31.605Z,95942.00
2023-03-30T10:16:42.389Z,95962.00
2023-03-30T10:20:53.223Z,95971.00
2023-03-30T10:25:00.837Z,95963.00
2023-03-30T10:29:11.033Z,95966.00
2023-03-30T10:33:14.221Z,95965.00
2023-03-30T10:37:21.271Z,95963.00
2023-03-30T10:41:25.433Z,95958.00
2023-03-30T10:45:36.190Z,95951.00
2023-03-30T10:49:49.965Z,95935.00
2023-03-30T10:54:06.002Z,95946.00
2023-03-30T10:58:19.720Z,95936.00
2023-03-30T11:02:30.431Z,95939.00
2023-03-30T11:06:41.117Z,95915.00
2023-03-30T11:10:49.036Z,95908.00
2023-03-30T11:14:57.711Z,95922.00
2023-03-30T11:19:08.320Z,95941.00
2023-03-30T11:23:25.437Z,95928.00
2023-03-30T11:27:31.713Z,95912.00
2023-03-30T11:31:48.348Z,95921.00
2023-03-30T11:35:59.246Z,95934.00
2023-03-30T11:40:17.779Z,95930.00
2023-03-30T11:44:22.829Z,95913.00
2023-03-30T11:49:00.224Z,95926.00
2023-03-30T11:53:29.470Z,95960.00
2023-03-30T11:57:39.950Z,95937.00
2023-03-30T12:01:55.917Z,95899.00
2023-03-30T12:06:25.059Z,95911.00
2023-03-30T12:10:44.192Z,95918.00
2023-03-30T12:15:02.435Z,95916.00
2023-03-30T12:19:13.033Z,95919.00
2023-03-30T12:23:30.594Z,95911.00
2023-03-30T12:27:38.843Z,95892.00
2023-03-30T12:32:23.204Z,95890.00
2023-03-30T12:36:38.413Z,95888.00
2023-03-30T12:40:47.432Z,95885.00
2023-03-30T12:45:03.028Z,95887.00
2023-03-30T12:49:18.051Z,95891.00
2023-03-30T12:53:39.726Z,95880.00
2023-03-30T12:58:01.511Z,95892.00
2023-03-30T13:02:55.191Z,95899.00
2023-03-30T13:07:03.351Z,95894.00
2023-03-30T13:11:14.198Z,95881.00
2023-03-30T13:15:47.825Z,95886.00
2023-03-30T13:20:28.199Z,95889.00
2023-03-30T13:24:46.562Z,95881.00
2023-03-30T13:29:11.483Z,95880.00
2023-03-30T13:33:20.616Z,95883.00
2023-03-30T13:37:36.655Z,95871.00
2023-03-30T13:41:51.807Z,95854.00
2023-03-30T13:46:15.572Z,95854.00
2023-03-30T13:50:26.538Z,95849.00
2023-03-30T13:54:35.478Z,95836.00
2023-03-30T13:58:44.264Z,95838.00
2023-03-30T14:02:49.690Z,95841.00
2023-03-30T14:06:54.818Z,95845.00
2023-03-30T14:11:00.888Z,95847.00
2023-03-30T14:15:17.597Z,95828.00
2023-03-30T14:19:24.968Z,95822.00
2023-03-30T14:23:35.325Z,95813.00
2023-03-30T14:27:43.141Z,95802.00
2023-03-30T14:32:04.509Z,95796.00
2023-03-30T14:36:12.925Z,95795.00
2023-03-30T14:40:19.929Z,95811.00
2023-03-30T14:44:25.065Z,95810.00
2023-03-30T14:48:32.161Z,95793.00
2023-03-30T14:52:41.124Z,95791.00
2023-03-30T14:56:46.413Z,95787.00
2023-03-30T15:00:49.579Z,95797.00
2023-03-30T15:04:57.831Z,95772.00
2023-03-30T15:09:02.883Z,95757.00
2023-03-30T15:13:13.631Z,95773.00
2023-03-30T15:17:24.438Z,95769.00
2023-03-30T15:21:30.384Z,95771.00
2023-03-30T15:25:35.655Z,95767.00
2023-03-30T15:29:41.092Z,95766.00
2023-03-30T15:33:50.790Z,95791.00
2023-03-30T15:37:58.647Z,95789.00
2023-03-30T15:42:05.758Z,95777.00
2023-03-30T15:46:14.244Z,95778.00
2023-03-30T15:50:19.113Z,95765.00
2023-03-30T15:54:38.696Z,95775.00
2023-03-30T15:58:43.987Z,95772.00
2023-03-30T16:02:49.369Z,95768.00
2023-03-30T16:06:58.889Z,95766.00
2023-03-30T16:11:06.987Z,95791.00
2023-03-30T16:15:14.089Z,95765.00
2023-03-30T16:19:24.642Z,95805.00
2023-03-30T16:23:27.944Z,95800.00
2023-03-30T16:27:38.894Z,95796.00
2023-03-30T16:31:45.020Z,95804.00
2023-03-30T16:35:48.073Z,95803.00
2023-03-30T16:39:51.493Z,95784.00
2023-03-30T16:43:56.061Z,95786.00
2023-03-30T16:47:59.413Z,95790.00
2023-03-30T16:52:03.068Z,95781.00
2023-03-30T16:56:07.914Z,95769.00
2023-03-30T17:00:30.401Z,95773.00
2023-03-30T17:04:35.587Z,95770.00
2023-03-30T17:08:40.944Z,95760.00
2023-03-30T17:12:47.085Z,95761.00
2023-03-30T17:16:51.695Z,95752.00
2023-03-30T17:21:00.382Z,95767.00
2023-03-30T17:25:03.397Z,95771.00
2023-03-30T17:29:08.816Z,95775.00
2023-03-30T17:33:13.169Z,95771.00
2023-03-30T17:37:16.570Z,95787.00
2023-03-30T17:41:20.801Z,95792.00
2023-03-30T17:45:29.414Z,95798.00
2023-03-30T17:49:34.042Z,95823.00
2023-03-30T17:53:39.014Z,95828.00
2023-03-30T17:57:45.733Z,95849.00
2023-03-30T18:01:48.988Z,95856.00
2023-03-30T18:05:55.241Z,95853.00
2023-03-30T18:09:59.459Z,95875.00
2023-03-30T18:14:05.935Z,95888.00
2023-03-30T18:18:13.818Z,95883.00
2023-03-30T18:22:21.023Z,95889.00
2023-03-30T18:26:26.125Z,95891.00
2023-03-30T18:30:32.070Z,95887.00
2023-03-30T18:34:38.073Z,95887.00
2023-03-30T18:38:45.253Z,95887.00
2023-03-30T18:42:51.306Z,95897.00
2023-03-30T18:46:56.760Z,95911.00
2023-03-30T18:51:00.808Z,95923.00
2023-03-30T18:55:07.967Z,95918.00
2023-03-30T18:59:11.318Z,95910.00
2023-03-30T19:03:15.662Z,95921.00
2023-03-30T19:07:24.169Z,95929.00
2023-03-30T19:11:28.990Z,95932.00
2023-03-30T19:15:39.558Z,95935.00
2023-03-30T19:19:44.177Z,95933.00
2023-03-30T19:23:47.512Z,95939.00
2023-03-30T19:28:02.685Z,95940.00
2023-03-30T19:32:10.152Z,95935.00
2023-03-30T19:36:17.116Z,95946.00
2023-03-30T19:40:25.148Z,95938.00
2023-03-30T19:44:32.322Z,95947.00
2023-03-30T19:48:35.474Z,95938.00
2023-03-30T19:52:41.054Z,95945.00
2023-03-30T19:56:44.552Z,95945.00
2023-03-30T20:00:51.374Z,95945.00
2023-03-30T20:04:58.544Z,95946.00
2023-03-30T20:09:08.210Z,95947.00
2023-03-30T20:13:11.517Z,95944.00
2023-03-30T20:17:18.426Z,95941.00
2023-03-30T20:21:22.726Z,95958.00
2023-03-30T20:25:26.099Z,95953.00
2023-03-30T20:29:32.419Z,95955.00
2023-03-30T20:33:38.788Z,95955.00
2023-03-30T20:37:41.892Z,95950.00
2023-03-30T20:41:45.580Z,95941.00
2023-03-30T20:45:57.763Z,95937.00
2023-03-30T20:50:04.130Z,95929.00
2023-03-30T20:54:10.463Z,95928.00
2023-03-30T20:58:16.814Z,95939.00
2023-03-30T21:02:20.543Z,95942.00
2023-03-30T21:06:27.528Z,95936.00
2023-03-30T21:10:36.298Z,95938.00
2023-03-30T21:14:39.559Z,95941.00
2023-03-30T21:18:44.636Z,95940.00
2023-03-30T21:22:51.589Z,95925.00
2023-03-30T21:26:55.628Z,95920.00
2023-03-30T21:31:01.081Z,95920.00
2023-03-30T21:35:04.227Z,95920.00
2023-03-30T21:39:08.626Z,95916.00
2023-03-30T21:43:11.722Z,95919.00
2023-03-30T21:47:17.565Z,95918.00
2023-03-30T21:51:22.741Z,95909.00
2023-03-30T21:55:27.190Z,95905.00
2023-03-30T21:59:34.808Z,95900.00
2023-03-30T22:03:38.172Z,95898.00
2023-03-30T22:07:42.420Z,95890.00
2023-03-30T22:11:51.288Z,95878.00
2023-03-30T22:16:01.933Z,95888.00
2023-03-30T22:20:07.038Z,95885.00
2023-03-30T22:24:13.172Z,95873.00
2023-03-30T22:28:18.079Z,95874.00
2023-03-30T22:32:23.632Z,95865.00
2023-03-30T22:36:31.478Z,95860.00
2023-03-30T22:40:35.917Z,95851.00
2023-03-30T22:44:41.274Z,95855.00
2023-03-30T22:48:44.281Z,95833.00
2023-03-30T22:52:47.477Z,95829.00
2023-03-30T22:56:54.347Z,95845.00
2023-03-30T23:01:07.113Z,95835.00
2023-03-30T23:05:14.164Z,95842.00
2023-03-30T23:09:17.807Z,95842.00
2023-03-30T23:13:22.385Z,95838.00
2023-03-30T23:17:27.564Z,95843.00
2023-03-30T23:21:34.632Z,95836.00
2023-03-30T23:25:38.091Z,95835.00
2023-03-30T23:29:43.007Z,95818.00
2023-03-30T23:33:47.571Z,95814.00
2023-03-30T23:37:52.788Z,95811.00
2023-03-30T23:41:56.642Z,95799.00
2023-03-30T23:45:59.840Z,95792.00
2023-03-30T23:50:04.654Z,95787.00
2023-03-30T23:54:08.011Z,95772.00
2023-03-30T23:58:12.332Z,95760.00
